sensor_id;sensor_type;location;lat;lon;timestamp;P1;durP1;ratioP1;P2;durP2;ratioP2
60233;SDS011;49514;43.538;-5.708;2023-10-08T00:01:09;36.85;;;10.75;;
60233;SDS011;49514;43.538;-5.708;2023-10-08T00:03:40;33.40;;;10.30;;
60233;SDS011;49514;43.538;-5.708;2023-10-08T00:06:17;32.90;;;10.75;;
60233;SDS011;49514;43.538;-5.708;2023-10-08T00:08:45;35.40;;;10.95;;
60233;SDS011;49514;43.538;-5.708;2023-10-08T00:11:13;32.40;;;8.55;;
60233;SDS011;49514;43.538;-5.708;2023-10-08T00:13:42;30.52;;;8.30;;
60233;SDS011;49514;43.538;-5.708;2023-10-08T00:16:10;30.75;;;7.60;;
60233;SDS011;49514;43.538;-5.708;2023-10-08T00:18:37;32.92;;;6.68;;
60233;SDS011;49514;43.538;-5.708;2023-10-08T00:21:07;26.30;;;8.10;;
60233;SDS011;49514;43.538;-5.708;2023-10-08T00:23:37;27.60;;;8.77;;
60233;SDS011;49514;43.538;-5.708;2023-10-08T00:26:25;31.23;;;7.72;;
60233;SDS011;49514;43.538;-5.708;2023-10-08T00:28:58;34.45;;;7.28;;
60233;SDS011;49514;43.538;-5.708;2023-10-08T00:31:26;29.92;;;6.10;;
60233;SDS011;49514;43.538;-5.708;2023-10-08T00:33:58;31.43;;;5.90;;
60233;SDS011;49514;43.538;-5.708;2023-10-08T00:36:25;41.17;;;5.97;;
60233;SDS011;49514;43.538;-5.708;2023-10-08T00:38:51;29.23;;;5.57;;
60233;SDS011;49514;43.538;-5.708;2023-10-08T00:41:28;30.93;;;5.60;;
60233;SDS011;49514;43.538;-5.708;2023-10-08T00:43:58;34.43;;;9.43;;
60233;SDS011;49514;43.538;-5.708;2023-10-08T00:46:31;36.75;;;10.07;;
60233;SDS011;49514;43.538;-5.708;2023-10-08T00:49:02;42.53;;;8.52;;
60233;SDS011;49514;43.538;-5.708;2023-10-08T00:51:47;41.28;;;7.70;;
60233;SDS011;49514;43.538;-5.708;2023-10-08T00:54:26;41.08;;;7.45;;
60233;SDS011;49514;43.538;-5.708;2023-10-08T00:56:59;48.33;;;8.20;;
60233;SDS011;49514;43.538;-5.708;2023-10-08T00:59:33;41.27;;;6.40;;
60233;SDS011;49514;43.538;-5.708;2023-10-08T01:02:07;36.63;;;5.68;;
60233;SDS011;49514;43.538;-5.708;2023-10-08T01:04:40;38.97;;;5.97;;
60233;SDS011;49514;43.538;-5.708;2023-10-08T01:07:10;25.92;;;5.85;;
60233;SDS011;49514;43.538;-5.708;2023-10-08T01:09:42;40.00;;;6.70;;
60233;SDS011;49514;43.538;-5.708;2023-10-08T01:12:14;47.25;;;5.90;;
60233;SDS011;49514;43.538;-5.708;2023-10-08T01:14:42;46.63;;;6.30;;
60233;SDS011;49514;43.538;-5.708;2023-10-08T01:17:09;37.50;;;5.57;;
60233;SDS011;49514;43.538;-5.708;2023-10-08T01:19:45;46.53;;;8.32;;
60233;SDS011;49514;43.538;-5.708;2023-10-08T01:22:31;33.65;;;10.57;;
60233;SDS011;49514;43.538;-5.708;2023-10-08T01:24:59;29.77;;;8.98;;
60233;SDS011;49514;43.538;-5.708;2023-10-08T01:27:29;27.47;;;8.90;;
60233;SDS011;49514;43.538;-5.708;2023-10-08T01:30:00;34.47;;;10.40;;
60233;SDS011;49514;43.538;-5.708;2023-10-08T01:32:44;28.63;;;8.20;;
60233;SDS011;49514;43.538;-5.708;2023-10-08T01:35:11;25.02;;;6.05;;
60233;SDS011;49514;43.538;-5.708;2023-10-08T01:37:49;31.02;;;6.70;;
60233;SDS011;49514;43.538;-5.708;2023-10-08T01:40:16;33.05;;;5.05;;
60233;SDS011;49514;43.538;-5.708;2023-10-08T01:42:43;34.85;;;5.25;;
60233;SDS011;49514;43.538;-5.708;2023-10-08T01:45:11;24.73;;;5.00;;
60233;SDS011;49514;43.538;-5.708;2023-10-08T01:47:47;27.55;;;6.50;;
60233;SDS011;49514;43.538;-5.708;2023-10-08T01:50:21;20.67;;;6.25;;
60233;SDS011;49514;43.538;-5.708;2023-10-08T01:52:56;23.40;;;7.78;;
60233;SDS011;49514;43.538;-5.708;2023-10-08T01:55:32;26.52;;;10.63;;
60233;SDS011;49514;43.538;-5.708;2023-10-08T01:58:15;35.20;;;15.57;;
60233;SDS011;49514;43.538;-5.708;2023-10-08T02:00:46;40.83;;;17.57;;
60233;SDS011;49514;43.538;-5.708;2023-10-08T02:03:18;35.35;;;16.13;;
60233;SDS011;49514;43.538;-5.708;2023-10-08T02:05:45;31.67;;;14.27;;
60233;SDS011;49514;43.538;-5.708;2023-10-08T02:08:15;37.00;;;11.43;;
60233;SDS011;49514;43.538;-5.708;2023-10-08T02:10:44;37.90;;;9.15;;
60233;SDS011;49514;43.538;-5.708;2023-10-08T02:13:14;38.23;;;8.47;;
60233;SDS011;49514;43.538;-5.708;2023-10-08T02:15:44;50.85;;;9.13;;
60233;SDS011;49514;43.538;-5.708;2023-10-08T02:18:16;52.67;;;8.10;;
60233;SDS011;49514;43.538;-5.708;2023-10-08T02:20:44;67.88;;;8.93;;
60233;SDS011;49514;43.538;-5.708;2023-10-08T02:23:11;75.50;;;9.35;;
60233;SDS011;49514;43.538;-5.708;2023-10-08T02:25:39;49.72;;;8.80;;
60233;SDS011;49514;43.538;-5.708;2023-10-08T02:28:07;52.90;;;8.85;;
60233;SDS011;49514;43.538;-5.708;2023-10-08T02:30:35;46.03;;;9.77;;
60233;SDS011;49514;43.538;-5.708;2023-10-08T02:33:10;35.63;;;9.13;;
60233;SDS011;49514;43.538;-5.708;2023-10-08T02:35:42;27.90;;;8.53;;
60233;SDS011;49514;43.538;-5.708;2023-10-08T02:38:10;20.52;;;6.82;;
60233;SDS011;49514;43.538;-5.708;2023-10-08T02:40:42;19.67;;;6.47;;
60233;SDS011;49514;43.538;-5.708;2023-10-08T02:43:16;17.77;;;5.25;;
60233;SDS011;49514;43.538;-5.708;2023-10-08T02:45:44;23.17;;;6.40;;
60233;SDS011;49514;43.538;-5.708;2023-10-08T02:48:15;23.17;;;7.40;;
60233;SDS011;49514;43.538;-5.708;2023-10-08T02:50:43;16.17;;;5.70;;
60233;SDS011;49514;43.538;-5.708;2023-10-08T02:53:12;17.10;;;5.90;;
60233;SDS011;49514;43.538;-5.708;2023-10-08T02:55:43;15.57;;;5.53;;
60233;SDS011;49514;43.538;-5.708;2023-10-08T02:58:13;17.00;;;5.47;;
60233;SDS011;49514;43.538;-5.708;2023-10-08T03:00:41;15.90;;;5.90;;
60233;SDS011;49514;43.538;-5.708;2023-10-08T03:03:09;20.08;;;6.72;;
60233;SDS011;49514;43.538;-5.708;2023-10-08T03:05:45;26.50;;;9.65;;
60233;SDS011;49514;43.538;-5.708;2023-10-08T03:08:16;27.10;;;9.50;;
60233;SDS011;49514;43.538;-5.708;2023-10-08T03:10:47;24.23;;;8.55;;
60233;SDS011;49514;43.538;-5.708;2023-10-08T03:13:15;27.60;;;8.38;;
60233;SDS011;49514;43.538;-5.708;2023-10-08T03:15:43;24.88;;;8.70;;
60233;SDS011;49514;43.538;-5.708;2023-10-08T03:18:23;22.75;;;7.85;;
60233;SDS011;49514;43.538;-5.708;2023-10-08T03:20:50;22.85;;;7.88;;
60233;SDS011;49514;43.538;-5.708;2023-10-08T03:23:18;23.93;;;6.77;;
60233;SDS011;49514;43.538;-5.708;2023-10-08T03:26:11;22.00;;;6.90;;
60233;SDS011;49514;43.538;-5.708;2023-10-08T03:28:56;18.55;;;5.93;;
60233;SDS011;49514;43.538;-5.708;2023-10-08T03:31:25;24.13;;;6.40;;
60233;SDS011;49514;43.538;-5.708;2023-10-08T03:34:20;21.53;;;6.13;;
60233;SDS011;49514;43.538;-5.708;2023-10-08T03:36:53;23.55;;;5.88;;
60233;SDS011;49514;43.538;-5.708;2023-10-08T03:39:31;23.10;;;5.60;;
60233;SDS011;49514;43.538;-5.708;2023-10-08T03:42:23;19.85;;;4.85;;
60233;SDS011;49514;43.538;-5.708;2023-10-08T03:44:51;19.23;;;4.88;;
60233;SDS011;49514;43.538;-5.708;2023-10-08T03:47:21;17.60;;;4.53;;
60233;SDS011;49514;43.538;-5.708;2023-10-08T03:49:52;18.73;;;4.53;;
60233;SDS011;49514;43.538;-5.708;2023-10-08T03:52:20;20.50;;;5.30;;
60233;SDS011;49514;43.538;-5.708;2023-10-08T03:54:52;23.02;;;5.65;;
60233;SDS011;49514;43.538;-5.708;2023-10-08T03:57:42;23.08;;;4.85;;
60233;SDS011;49514;43.538;-5.708;2023-10-08T04:00:10;23.20;;;4.43;;
60233;SDS011;49514;43.538;-5.708;2023-10-08T04:02:44;21.17;;;5.28;;
60233;SDS011;49514;43.538;-5.708;2023-10-08T04:05:24;22.52;;;5.90;;
60233;SDS011;49514;43.538;-5.708;2023-10-08T04:07:58;20.90;;;5.28;;
60233;SDS011;49514;43.538;-5.708;2023-10-08T04:10:29;19.77;;;5.80;;
60233;SDS011;49514;43.538;-5.708;2023-10-08T04:13:25;19.42;;;5.40;;
60233;SDS011;49514;43.538;-5.708;2023-10-08T04:15:53;21.70;;;5.30;;
60233;SDS011;49514;43.538;-5.708;2023-10-08T04:18:21;15.77;;;5.13;;
60233;SDS011;49514;43.538;-5.708;2023-10-08T04:20:47;21.40;;;5.03;;
60233;SDS011;49514;43.538;-5.708;2023-10-08T04:23:32;25.15;;;5.43;;
60233;SDS011;49514;43.538;-5.708;2023-10-08T04:25:59;36.45;;;5.28;;
60233;SDS011;49514;43.538;-5.708;2023-10-08T04:28:26;18.80;;;5.03;;
60233;SDS011;49514;43.538;-5.708;2023-10-08T04:31:00;23.88;;;5.13;;
60233;SDS011;49514;43.538;-5.708;2023-10-08T04:33:43;20.67;;;4.60;;
60233;SDS011;49514;43.538;-5.708;2023-10-08T04:36:11;26.23;;;5.13;;
60233;SDS011;49514;43.538;-5.708;2023-10-08T04:38:45;23.00;;;4.85;;
60233;SDS011;49514;43.538;-5.708;2023-10-08T04:41:20;27.75;;;4.97;;
60233;SDS011;49514;43.538;-5.708;2023-10-08T04:43:53;35.97;;;5.03;;
60233;SDS011;49514;43.538;-5.708;2023-10-08T04:46:21;33.50;;;5.97;;
60233;SDS011;49514;43.538;-5.708;2023-10-08T04:49:08;29.27;;;5.57;;
60233;SDS011;49514;43.538;-5.708;2023-10-08T04:51:45;30.43;;;5.60;;
60233;SDS011;49514;43.538;-5.708;2023-10-08T04:54:14;30.42;;;6.00;;
60233;SDS011;49514;43.538;-5.708;2023-10-08T04:56:44;26.23;;;6.27;;
60233;SDS011;49514;43.538;-5.708;2023-10-08T04:59:14;29.63;;;11.77;;
60233;SDS011;49514;43.538;-5.708;2023-10-08T05:01:47;28.60;;;9.68;;
60233;SDS011;49514;43.538;-5.708;2023-10-08T05:04:14;27.33;;;8.15;;
60233;SDS011;49514;43.538;-5.708;2023-10-08T05:06:58;25.85;;;7.75;;
60233;SDS011;49514;43.538;-5.708;2023-10-08T05:09:44;24.55;;;6.72;;
60233;SDS011;49514;43.538;-5.708;2023-10-08T05:12:29;25.52;;;6.80;;
60233;SDS011;49514;43.538;-5.708;2023-10-08T05:14:59;34.28;;;7.20;;
60233;SDS011;49514;43.538;-5.708;2023-10-08T05:17:39;28.50;;;6.63;;
60233;SDS011;49514;43.538;-5.708;2023-10-08T05:20:32;20.65;;;6.22;;
60233;SDS011;49514;43.538;-5.708;2023-10-08T05:23:11;25.27;;;5.73;;
60233;SDS011;49514;43.538;-5.708;2023-10-08T05:25:52;22.63;;;6.03;;
60233;SDS011;49514;43.538;-5.708;2023-10-08T05:28:28;23.15;;;5.70;;
60233;SDS011;49514;43.538;-5.708;2023-10-08T05:30:56;27.53;;;5.80;;
60233;SDS011;49514;43.538;-5.708;2023-10-08T05:33:41;28.50;;;6.80;;
60233;SDS011;49514;43.538;-5.708;2023-10-08T05:36:27;45.53;;;10.80;;
60233;SDS011;49514;43.538;-5.708;2023-10-08T05:39:02;45.83;;;10.23;;
60233;SDS011;49514;43.538;-5.708;2023-10-08T05:41:47;49.05;;;8.27;;
60233;SDS011;49514;43.538;-5.708;2023-10-08T05:44:18;49.05;;;8.20;;
60233;SDS011;49514;43.538;-5.708;2023-10-08T05:46:45;46.17;;;8.23;;
60233;SDS011;49514;43.538;-5.708;2023-10-08T05:49:35;37.17;;;7.10;;
60233;SDS011;49514;43.538;-5.708;2023-10-08T05:52:02;32.88;;;6.95;;
60233;SDS011;49514;43.538;-5.708;2023-10-08T05:54:28;44.70;;;7.80;;
60233;SDS011;49514;43.538;-5.708;2023-10-08T05:56:56;41.95;;;7.40;;
60233;SDS011;49514;43.538;-5.708;2023-10-08T05:59:33;41.00;;;7.13;;
60233;SDS011;49514;43.538;-5.708;2023-10-08T06:02:19;41.95;;;6.35;;
60233;SDS011;49514;43.538;-5.708;2023-10-08T06:04:52;41.08;;;6.40;;
60233;SDS011;49514;43.538;-5.708;2023-10-08T06:10:22;37.53;;;5.97;;
60233;SDS011;49514;43.538;-5.708;2023-10-08T06:15:36;42.83;;;6.32;;
60233;SDS011;49514;43.538;-5.708;2023-10-08T06:20:58;34.97;;;4.97;;
60233;SDS011;49514;43.538;-5.708;2023-10-08T06:23:26;33.92;;;5.22;;
60233;SDS011;49514;43.538;-5.708;2023-10-08T06:25:55;29.23;;;5.40;;
60233;SDS011;49514;43.538;-5.708;2023-10-08T06:28:41;26.35;;;5.95;;
60233;SDS011;49514;43.538;-5.708;2023-10-08T06:31:08;23.73;;;6.43;;
60233;SDS011;49514;43.538;-5.708;2023-10-08T06:33:42;24.63;;;5.40;;
60233;SDS011;49514;43.538;-5.708;2023-10-08T06:36:10;25.80;;;7.70;;
60233;SDS011;49514;43.538;-5.708;2023-10-08T06:38:38;29.67;;;8.80;;
60233;SDS011;49514;43.538;-5.708;2023-10-08T06:41:07;41.87;;;8.77;;
60233;SDS011;49514;43.538;-5.708;2023-10-08T06:43:46;39.60;;;8.73;;
60233;SDS011;49514;43.538;-5.708;2023-10-08T06:46:17;33.63;;;7.78;;
60233;SDS011;49514;43.538;-5.708;2023-10-08T06:48:48;31.20;;;7.80;;
60233;SDS011;49514;43.538;-5.708;2023-10-08T06:51:15;17.63;;;6.57;;
60233;SDS011;49514;43.538;-5.708;2023-10-08T06:53:47;15.05;;;5.15;;
60233;SDS011;49514;43.538;-5.708;2023-10-08T06:56:15;19.80;;;5.93;;
60233;SDS011;49514;43.538;-5.708;2023-10-08T06:58:44;31.43;;;8.10;;
60233;SDS011;49514;43.538;-5.708;2023-10-08T07:01:20;31.00;;;7.38;;
60233;SDS011;49514;43.538;-5.708;2023-10-08T07:03:47;27.85;;;6.60;;
60233;SDS011;49514;43.538;-5.708;2023-10-08T07:06:18;31.25;;;6.30;;
60233;SDS011;49514;43.538;-5.708;2023-10-08T07:08:58;31.83;;;6.88;;
60233;SDS011;49514;43.538;-5.708;2023-10-08T07:11:25;32.47;;;6.50;;
60233;SDS011;49514;43.538;-5.708;2023-10-08T07:13:52;36.00;;;8.15;;
60233;SDS011;49514;43.538;-5.708;2023-10-08T07:16:21;36.42;;;8.13;;
60233;SDS011;49514;43.538;-5.708;2023-10-08T07:18:48;35.33;;;8.27;;
60233;SDS011;49514;43.538;-5.708;2023-10-08T07:21:20;40.33;;;8.00;;
60233;SDS011;49514;43.538;-5.708;2023-10-08T07:24:13;40.55;;;9.73;;
60233;SDS011;49514;43.538;-5.708;2023-10-08T07:26:48;40.33;;;10.82;;
60233;SDS011;49514;43.538;-5.708;2023-10-08T07:29:16;33.63;;;9.52;;
60233;SDS011;49514;43.538;-5.708;2023-10-08T07:31:44;32.22;;;8.35;;
60233;SDS011;49514;43.538;-5.708;2023-10-08T07:34:19;36.65;;;8.07;;
60233;SDS011;49514;43.538;-5.708;2023-10-08T07:36:49;45.00;;;14.30;;
60233;SDS011;49514;43.538;-5.708;2023-10-08T07:39:17;45.00;;;14.63;;
60233;SDS011;49514;43.538;-5.708;2023-10-08T07:41:52;41.75;;;11.00;;
60233;SDS011;49514;43.538;-5.708;2023-10-08T07:44:20;34.05;;;8.60;;
60233;SDS011;49514;43.538;-5.708;2023-10-08T07:46:50;28.80;;;6.70;;
60233;SDS011;49514;43.538;-5.708;2023-10-08T07:49:17;35.92;;;8.07;;
60233;SDS011;49514;43.538;-5.708;2023-10-08T07:51:45;36.22;;;7.72;;
60233;SDS011;49514;43.538;-5.708;2023-10-08T07:54:21;35.63;;;7.40;;
60233;SDS011;49514;43.538;-5.708;2023-10-08T07:56:49;30.52;;;8.15;;
60233;SDS011;49514;43.538;-5.708;2023-10-08T07:59:25;32.97;;;8.60;;
60233;SDS011;49514;43.538;-5.708;2023-10-08T08:01:52;33.53;;;7.07;;
60233;SDS011;49514;43.538;-5.708;2023-10-08T08:04:20;35.22;;;13.68;;
60233;SDS011;49514;43.538;-5.708;2023-10-08T08:06:50;40.05;;;13.52;;
60233;SDS011;49514;43.538;-5.708;2023-10-08T08:09:17;42.07;;;12.57;;
60233;SDS011;49514;43.538;-5.708;2023-10-08T08:11:49;30.80;;;8.85;;
60233;SDS011;49514;43.538;-5.708;2023-10-08T08:14:16;28.73;;;5.97;;
60233;SDS011;49514;43.538;-5.708;2023-10-08T08:16:43;36.80;;;8.10;;
60233;SDS011;49514;43.538;-5.708;2023-10-08T08:19:17;33.67;;;7.53;;
60233;SDS011;49514;43.538;-5.708;2023-10-08T08:21:50;33.80;;;7.10;;
60233;SDS011;49514;43.538;-5.708;2023-10-08T08:24:18;23.27;;;6.20;;
60233;SDS011;49514;43.538;-5.708;2023-10-08T08:26:55;27.63;;;7.35;;
60233;SDS011;49514;43.538;-5.708;2023-10-08T08:29:38;29.07;;;7.90;;
60233;SDS011;49514;43.538;-5.708;2023-10-08T08:32:11;30.50;;;6.97;;
60233;SDS011;49514;43.538;-5.708;2023-10-08T08:34:44;28.88;;;8.07;;
60233;SDS011;49514;43.538;-5.708;2023-10-08T08:37:11;21.60;;;7.77;;
60233;SDS011;49514;43.538;-5.708;2023-10-08T08:39:39;23.65;;;6.18;;
60233;SDS011;49514;43.538;-5.708;2023-10-08T08:42:07;23.38;;;5.80;;
60233;SDS011;49514;43.538;-5.708;2023-10-08T08:44:35;23.17;;;6.45;;
60233;SDS011;49514;43.538;-5.708;2023-10-08T08:47:05;29.88;;;7.35;;
60233;SDS011;49514;43.538;-5.708;2023-10-08T08:49:34;26.70;;;6.07;;
60233;SDS011;49514;43.538;-5.708;2023-10-08T08:52:03;23.70;;;4.68;;
60233;SDS011;49514;43.538;-5.708;2023-10-08T08:54:30;21.50;;;4.47;;
60233;SDS011;49514;43.538;-5.708;2023-10-08T08:57:01;24.63;;;4.68;;
60233;SDS011;49514;43.538;-5.708;2023-10-08T08:59:30;20.57;;;4.67;;
60233;SDS011;49514;43.538;-5.708;2023-10-08T09:01:58;37.25;;;7.60;;
60233;SDS011;49514;43.538;-5.708;2023-10-08T09:04:32;34.63;;;6.00;;
60233;SDS011;49514;43.538;-5.708;2023-10-08T09:06:59;25.00;;;5.53;;
60233;SDS011;49514;43.538;-5.708;2023-10-08T09:09:33;28.40;;;6.20;;
60233;SDS011;49514;43.538;-5.708;2023-10-08T09:12:01;25.55;;;6.68;;
60233;SDS011;49514;43.538;-5.708;2023-10-08T09:14:30;18.33;;;4.63;;
60233;SDS011;49514;43.538;-5.708;2023-10-08T09:17:02;29.08;;;5.13;;
60233;SDS011;49514;43.538;-5.708;2023-10-08T09:19:40;24.33;;;5.15;;
60233;SDS011;49514;43.538;-5.708;2023-10-08T09:22:07;30.00;;;4.80;;
60233;SDS011;49514;43.538;-5.708;2023-10-08T09:24:36;21.67;;;4.95;;
60233;SDS011;49514;43.538;-5.708;2023-10-08T09:27:06;25.08;;;5.05;;
60233;SDS011;49514;43.538;-5.708;2023-10-08T09:29:34;23.92;;;5.80;;
60233;SDS011;49514;43.538;-5.708;2023-10-08T09:32:11;31.60;;;6.85;;
60233;SDS011;49514;43.538;-5.708;2023-10-08T09:35:00;29.67;;;6.57;;
60233;SDS011;49514;43.538;-5.708;2023-10-08T09:37:31;28.52;;;8.35;;
60233;SDS011;49514;43.538;-5.708;2023-10-08T09:40:00;17.27;;;5.50;;
60233;SDS011;49514;43.538;-5.708;2023-10-08T09:42:36;18.57;;;5.53;;
60233;SDS011;49514;43.538;-5.708;2023-10-08T09:45:05;23.52;;;5.38;;
60233;SDS011;49514;43.538;-5.708;2023-10-08T09:47:38;27.03;;;5.63;;
60233;SDS011;49514;43.538;-5.708;2023-10-08T09:50:05;26.75;;;5.30;;
60233;SDS011;49514;43.538;-5.708;2023-10-08T09:52:55;20.52;;;4.70;;
60233;SDS011;49514;43.538;-5.708;2023-10-08T09:55:25;24.88;;;5.20;;
60233;SDS011;49514;43.538;-5.708;2023-10-08T09:57:53;34.28;;;6.10;;
60233;SDS011;49514;43.538;-5.708;2023-10-08T10:00:21;14.90;;;4.60;;
60233;SDS011;49514;43.538;-5.708;2023-10-08T10:02:57;20.15;;;5.00;;
60233;SDS011;49514;43.538;-5.708;2023-10-08T10:05:28;19.80;;;4.75;;
60233;SDS011;49514;43.538;-5.708;2023-10-08T10:07:55;19.85;;;5.30;;
60233;SDS011;49514;43.538;-5.708;2023-10-08T10:10:26;17.08;;;4.82;;
60233;SDS011;49514;43.538;-5.708;2023-10-08T10:12:56;17.02;;;4.85;;
60233;SDS011;49514;43.538;-5.708;2023-10-08T10:15:25;15.73;;;5.10;;
60233;SDS011;49514;43.538;-5.708;2023-10-08T10:17:52;19.23;;;5.07;;
60233;SDS011;49514;43.538;-5.708;2023-10-08T10:20:21;19.27;;;5.85;;
60233;SDS011;49514;43.538;-5.708;2023-10-08T10:22:48;15.68;;;4.80;;
60233;SDS011;49514;43.538;-5.708;2023-10-08T10:25:16;20.70;;;6.60;;
60233;SDS011;49514;43.538;-5.708;2023-10-08T10:30:17;14.35;;;4.38;;
60233;SDS011;49514;43.538;-5.708;2023-10-08T10:32:45;19.20;;;6.43;;
60233;SDS011;49514;43.538;-5.708;2023-10-08T10:35:14;18.80;;;6.63;;
60233;SDS011;49514;43.538;-5.708;2023-10-08T10:37:44;8.52;;;3.10;;
60233;SDS011;49514;43.538;-5.708;2023-10-08T10:40:23;9.35;;;2.78;;
60233;SDS011;49514;43.538;-5.708;2023-10-08T10:43:06;11.02;;;3.00;;
60233;SDS011;49514;43.538;-5.708;2023-10-08T10:45:35;11.95;;;2.53;;
60233;SDS011;49514;43.538;-5.708;2023-10-08T10:48:02;7.82;;;2.58;;
60233;SDS011;49514;43.538;-5.708;2023-10-08T10:50:48;12.93;;;2.78;;
60233;SDS011;49514;43.538;-5.708;2023-10-08T10:53:32;7.93;;;2.97;;
60233;SDS011;49514;43.538;-5.708;2023-10-08T10:56:00;8.18;;;2.60;;
60233;SDS011;49514;43.538;-5.708;2023-10-08T10:58:35;8.50;;;2.63;;
60233;SDS011;49514;43.538;-5.708;2023-10-08T11:01:05;16.88;;;3.17;;
60233;SDS011;49514;43.538;-5.708;2023-10-08T11:03:52;11.70;;;3.50;;
60233;SDS011;49514;43.538;-5.708;2023-10-08T11:06:19;9.32;;;2.90;;
60233;SDS011;49514;43.538;-5.708;2023-10-08T11:08:51;8.63;;;2.78;;
60233;SDS011;49514;43.538;-5.708;2023-10-08T11:11:25;8.77;;;3.65;;
60233;SDS011;49514;43.538;-5.708;2023-10-08T11:13:59;7.50;;;3.55;;
60233;SDS011;49514;43.538;-5.708;2023-10-08T11:16:26;10.73;;;3.00;;
60233;SDS011;49514;43.538;-5.708;2023-10-08T11:18:53;11.05;;;3.42;;
60233;SDS011;49514;43.538;-5.708;2023-10-08T11:21:26;13.30;;;4.10;;
60233;SDS011;49514;43.538;-5.708;2023-10-08T11:23:57;10.30;;;4.10;;
60233;SDS011;49514;43.538;-5.708;2023-10-08T11:26:35;15.15;;;4.32;;
60233;SDS011;49514;43.538;-5.708;2023-10-08T11:29:20;11.63;;;3.70;;
60233;SDS011;49514;43.538;-5.708;2023-10-08T11:31:51;10.60;;;3.70;;
60233;SDS011;49514;43.538;-5.708;2023-10-08T11:34:19;11.80;;;4.25;;
60233;SDS011;49514;43.538;-5.708;2023-10-08T11:36:53;12.48;;;4.68;;
60233;SDS011;49514;43.538;-5.708;2023-10-08T11:39:22;14.00;;;3.80;;
60233;SDS011;49514;43.538;-5.708;2023-10-08T11:41:55;11.00;;;4.20;;
60233;SDS011;49514;43.538;-5.708;2023-10-08T11:44:42;10.23;;;3.60;;
60233;SDS011;49514;43.538;-5.708;2023-10-08T11:47:09;19.37;;;9.13;;
60233;SDS011;49514;43.538;-5.708;2023-10-08T11:49:47;12.43;;;4.03;;
60233;SDS011;49514;43.538;-5.708;2023-10-08T11:52:16;10.18;;;3.90;;
60233;SDS011;49514;43.538;-5.708;2023-10-08T11:54:47;11.57;;;4.28;;
60233;SDS011;49514;43.538;-5.708;2023-10-08T11:57:15;16.67;;;6.65;;
60233;SDS011;49514;43.538;-5.708;2023-10-08T11:59:47;32.28;;;17.08;;
60233;SDS011;49514;43.538;-5.708;2023-10-08T12:02:14;16.30;;;7.03;;
60233;SDS011;49514;43.538;-5.708;2023-10-08T12:04:43;92.72;;;61.05;;
60233;SDS011;49514;43.538;-5.708;2023-10-08T12:07:13;70.50;;;43.70;;
60233;SDS011;49514;43.538;-5.708;2023-10-08T12:09:43;42.33;;;26.83;;
60233;SDS011;49514;43.538;-5.708;2023-10-08T12:12:14;11.18;;;4.47;;
60233;SDS011;49514;43.538;-5.708;2023-10-08T12:14:41;22.13;;;10.82;;
60233;SDS011;49514;43.538;-5.708;2023-10-08T12:17:11;21.38;;;10.43;;
60233;SDS011;49514;43.538;-5.708;2023-10-08T12:19:38;18.67;;;7.83;;
60233;SDS011;49514;43.538;-5.708;2023-10-08T12:22:08;19.35;;;9.45;;
60233;SDS011;49514;43.538;-5.708;2023-10-08T12:24:40;15.55;;;7.80;;
60233;SDS011;49514;43.538;-5.708;2023-10-08T12:27:08;18.27;;;8.95;;
60233;SDS011;49514;43.538;-5.708;2023-10-08T12:29:37;23.38;;;7.55;;
60233;SDS011;49514;43.538;-5.708;2023-10-08T12:32:04;8.30;;;3.53;;
60233;SDS011;49514;43.538;-5.708;2023-10-08T12:34:42;10.03;;;3.70;;
60233;SDS011;49514;43.538;-5.708;2023-10-08T12:37:09;11.37;;;4.10;;
60233;SDS011;49514;43.538;-5.708;2023-10-08T12:39:40;13.30;;;6.80;;
60233;SDS011;49514;43.538;-5.708;2023-10-08T12:42:22;11.23;;;5.72;;
60233;SDS011;49514;43.538;-5.708;2023-10-08T12:44:51;10.05;;;4.80;;
60233;SDS011;49514;43.538;-5.708;2023-10-08T12:47:18;9.80;;;4.00;;
60233;SDS011;49514;43.538;-5.708;2023-10-08T12:49:44;11.18;;;3.85;;
60233;SDS011;49514;43.538;-5.708;2023-10-08T12:52:12;12.43;;;2.83;;
60233;SDS011;49514;43.538;-5.708;2023-10-08T12:54:40;8.77;;;2.33;;
60233;SDS011;49514;43.538;-5.708;2023-10-08T12:57:11;12.40;;;5.55;;
60233;SDS011;49514;43.538;-5.708;2023-10-08T12:59:42;8.27;;;2.58;;
60233;SDS011;49514;43.538;-5.708;2023-10-08T13:02:14;8.37;;;2.60;;
60233;SDS011;49514;43.538;-5.708;2023-10-08T13:04:42;7.43;;;2.45;;
60233;SDS011;49514;43.538;-5.708;2023-10-08T13:07:11;7.68;;;2.60;;
60233;SDS011;49514;43.538;-5.708;2023-10-08T13:09:40;6.90;;;2.53;;
60233;SDS011;49514;43.538;-5.708;2023-10-08T13:12:08;7.82;;;2.10;;
60233;SDS011;49514;43.538;-5.708;2023-10-08T13:14:36;7.27;;;2.20;;
60233;SDS011;49514;43.538;-5.708;2023-10-08T13:17:03;6.32;;;2.40;;
60233;SDS011;49514;43.538;-5.708;2023-10-08T13:19:29;5.60;;;2.00;;
60233;SDS011;49514;43.538;-5.708;2023-10-08T13:22:00;6.65;;;2.10;;
60233;SDS011;49514;43.538;-5.708;2023-10-08T13:24:26;9.88;;;2.42;;
60233;SDS011;49514;43.538;-5.708;2023-10-08T13:26:55;7.57;;;2.22;;
60233;SDS011;49514;43.538;-5.708;2023-10-08T13:29:24;4.85;;;1.90;;
60233;SDS011;49514;43.538;-5.708;2023-10-08T13:31:52;8.98;;;2.15;;
60233;SDS011;49514;43.538;-5.708;2023-10-08T13:34:20;5.25;;;1.88;;
60233;SDS011;49514;43.538;-5.708;2023-10-08T13:36:47;6.43;;;2.03;;
60233;SDS011;49514;43.538;-5.708;2023-10-08T13:39:15;7.50;;;2.00;;
60233;SDS011;49514;43.538;-5.708;2023-10-08T13:41:45;5.60;;;1.87;;
60233;SDS011;49514;43.538;-5.708;2023-10-08T13:44:14;7.15;;;2.00;;
60233;SDS011;49514;43.538;-5.708;2023-10-08T13:46:41;6.73;;;2.10;;
60233;SDS011;49514;43.538;-5.708;2023-10-08T13:49:15;6.03;;;2.00;;
60233;SDS011;49514;43.538;-5.708;2023-10-08T13:51:44;6.75;;;2.10;;
60233;SDS011;49514;43.538;-5.708;2023-10-08T13:54:12;12.32;;;2.30;;
60233;SDS011;49514;43.538;-5.708;2023-10-08T13:56:40;5.32;;;1.80;;
60233;SDS011;49514;43.538;-5.708;2023-10-08T13:59:14;5.70;;;2.05;;
60233;SDS011;49514;43.538;-5.708;2023-10-08T14:01:41;5.17;;;1.90;;
60233;SDS011;49514;43.538;-5.708;2023-10-08T14:04:18;6.00;;;1.80;;
60233;SDS011;49514;43.538;-5.708;2023-10-08T14:06:56;10.25;;;1.92;;
60233;SDS011;49514;43.538;-5.708;2023-10-08T14:09:24;4.93;;;1.60;;
60233;SDS011;49514;43.538;-5.708;2023-10-08T14:11:57;6.90;;;1.75;;
60233;SDS011;49514;43.538;-5.708;2023-10-08T14:14:24;4.93;;;1.50;;
60233;SDS011;49514;43.538;-5.708;2023-10-08T14:16:56;6.65;;;1.85;;
60233;SDS011;49514;43.538;-5.708;2023-10-08T14:19:29;6.22;;;1.80;;
60233;SDS011;49514;43.538;-5.708;2023-10-08T14:22:12;6.15;;;1.50;;
60233;SDS011;49514;43.538;-5.708;2023-10-08T14:24:42;3.97;;;1.60;;
60233;SDS011;49514;43.538;-5.708;2023-10-08T14:27:11;7.30;;;1.80;;
60233;SDS011;49514;43.538;-5.708;2023-10-08T14:29:41;4.03;;;1.40;;
60233;SDS011;49514;43.538;-5.708;2023-10-08T14:32:13;6.90;;;1.60;;
60233;SDS011;49514;43.538;-5.708;2023-10-08T14:34:41;6.13;;;1.77;;
60233;SDS011;49514;43.538;-5.708;2023-10-08T14:37:13;5.55;;;1.70;;
60233;SDS011;49514;43.538;-5.708;2023-10-08T14:39:59;6.32;;;1.60;;
60233;SDS011;49514;43.538;-5.708;2023-10-08T14:42:45;5.67;;;1.70;;
60233;SDS011;49514;43.538;-5.708;2023-10-08T14:45:32;4.15;;;1.70;;
60233;SDS011;49514;43.538;-5.708;2023-10-08T14:48:01;7.47;;;1.65;;
60233;SDS011;49514;43.538;-5.708;2023-10-08T14:50:28;6.10;;;1.50;;
60233;SDS011;49514;43.538;-5.708;2023-10-08T14:52:58;5.32;;;1.50;;
60233;SDS011;49514;43.538;-5.708;2023-10-08T14:55:35;5.00;;;1.52;;
60233;SDS011;49514;43.538;-5.708;2023-10-08T14:58:03;6.67;;;1.80;;
60233;SDS011;49514;43.538;-5.708;2023-10-08T15:00:34;7.35;;;1.70;;
60233;SDS011;49514;43.538;-5.708;2023-10-08T15:03:04;5.60;;;1.55;;